createdAt,value
2016-11-07T00:00:50.456Z,1003.2
2016-11-07T00:05:50.402Z,1003.21
2016-11-07T00:10:50.351Z,1003.28
2016-11-07T00:15:50.296Z,1003.4
2016-11-07T00:20:50.241Z,1003.5
2016-11-07T00:25:50.187Z,1003.57
2016-11-07T00:30:50.133Z,1003.57
2016-11-07T00:35:50.078Z,1003.74
2016-11-07T00:40:50.025Z,1003.79
2016-11-07T00:45:49.968Z,1003.87
2016-11-07T00:50:49.915Z,1003.99
2016-11-07T00:55:49.860Z,1004.05
2016-11-07T01:00:49.808Z,1004.06
2016-11-07T01:05:49.752Z,1004.16
2016-11-07T01:10:49.698Z,1004.23
2016-11-07T01:15:49.642Z,1004.25
2016-11-07T01:20:49.589Z,1004.3
2016-11-07T01:25:49.534Z,1004.41
2016-11-07T01:30:49.480Z,1004.38
2016-11-07T01:35:49.423Z,1004.45
2016-11-07T01:40:49.370Z,1004.44
2016-11-07T01:45:49.316Z,1004.46
2016-11-07T01:50:49.259Z,1004.46
2016-11-07T01:55:49.204Z,1004.48
2016-11-07T02:00:49.148Z,1004.53
2016-11-07T02:05:49.094Z,1004.51
2016-11-07T02:10:49.036Z,1004.51
2016-11-07T02:15:48.980Z,1004.49
2016-11-07T02:20:48.926Z,1004.58
2016-11-07T02:25:48.870Z,1004.59
2016-11-07T02:30:48.812Z,1004.65
2016-11-07T02:35:48.758Z,1004.71
2016-11-07T02:40:48.700Z,1004.76
2016-11-07T02:45:48.644Z,1004.81
2016-11-07T02:50:48.590Z,1004.84
2016-11-07T02:55:48.532Z,1004.83
2016-11-07T03:00:48.478Z,1004.84
2016-11-07T03:05:48.432Z,1004.88
2016-11-07T03:10:48.364Z,1004.89
2016-11-07T03:15:48.308Z,1004.89
2016-11-07T03:20:48.252Z,1004.92
2016-11-07T03:25:48.194Z,1005.05
2016-11-07T03:30:48.138Z,1005.11
2016-11-07T03:35:48.082Z,1005.18
2016-11-07T03:40:48.026Z,1005.23
2016-11-07T03:45:47.970Z,1005.34
2016-11-07T03:50:47.917Z,1005.38
2016-11-07T03:55:47.858Z,1005.41
2016-11-07T04:00:47.798Z,1005.47
2016-11-07T04:05:47.742Z,1005.49
2016-11-07T04:10:47.686Z,1005.55
2016-11-07T04:15:47.628Z,1005.49
2016-11-07T04:20:47.570Z,1005.6
2016-11-07T04:25:47.514Z,1005.69
2016-11-07T04:30:47.460Z,1005.71
2016-11-07T04:35:47.402Z,1005.7
2016-11-07T04:40:47.350Z,1005.84
2016-11-07T04:45:47.290Z,1005.86
2016-11-07T04:50:47.232Z,1005.81
2016-11-07T04:55:47.176Z,1005.86
2016-11-07T05:00:47.120Z,1005.88
2016-11-07T05:05:47.068Z,1005.97
2016-11-07T05:10:47.008Z,1005.98
2016-11-07T05:15:46.948Z,1006.11
2016-11-07T05:20:46.894Z,1006.17
2016-11-07T05:25:46.836Z,1006.2
2016-11-07T05:30:46.779Z,1006.26
2016-11-07T05:35:46.720Z,1006.34
2016-11-07T05:40:46.663Z,1006.35
2016-11-07T05:45:46.611Z,1006.4
2016-11-07T05:50:46.549Z,1006.5
2016-11-07T05:55:46.493Z,1006.56
2016-11-07T06:00:46.437Z,1006.64
2016-11-07T06:05:46.379Z,1006.7
2016-11-07T06:10:46.323Z,1006.78
2016-11-07T06:15:46.263Z,1006.8
2016-11-07T06:20:46.207Z,1006.91
2016-11-07T06:25:46.149Z,1007.05
2016-11-07T06:30:46.095Z,1007.12
2016-11-07T06:35:46.039Z,1007.21
2016-11-07T06:40:45.977Z,1007.27
2016-11-07T06:45:45.920Z,1007.34
2016-11-07T06:50:45.861Z,1007.45
2016-11-07T06:55:45.802Z,1007.49
2016-11-07T07:00:45.744Z,1007.57
2016-11-07T07:05:45.689Z,1007.65
2016-11-07T07:10:45.628Z,1007.75
2016-11-07T07:15:45.570Z,1007.85
2016-11-07T07:20:45.508Z,1007.91
2016-11-07T07:25:45.448Z,1007.87
2016-11-07T07:30:45.392Z,1007.97
2016-11-07T07:35:45.332Z,1007.97
2016-11-07T07:40:45.272Z,1008.04
2016-11-07T07:45:45.214Z,1008.03
2016-11-07T07:50:45.160Z,1008.11
2016-11-07T07:55:45.104Z,1008.12
2016-11-07T08:00:45.052Z,1008.23
2016-11-07T08:05:44.993Z,1008.28
2016-11-07T08:10:44.942Z,1008.37
2016-11-07T08:15:44.897Z,1008.4
2016-11-07T08:20:44.839Z,1008.48
2016-11-07T08:25:44.781Z,1008.5
2016-11-07T08:30:44.727Z,1008.58
2016-11-07T08:35:44.674Z,1008.64
2016-11-07T08:40:44.621Z,1008.64
2016-11-07T08:45:44.565Z,1008.66
2016-11-07T08:50:44.509Z,1008.67
2016-11-07T08:55:44.457Z,1008.76
2016-11-07T09:00:44.400Z,1008.81
2016-11-07T09:05:44.345Z,1008.86
2016-11-07T09:10:44.287Z,1008.91
2016-11-07T09:15:44.231Z,1008.98
2016-11-07T09:20:44.173Z,1009.03
2016-11-07T09:25:44.117Z,1009.06
2016-11-07T09:30:44.059Z,1009.07
2016-11-07T09:35:44.003Z,1009.1
2016-11-07T09:40:43.947Z,1009.19
2016-11-07T09:45:43.889Z,1009.26
2016-11-07T09:50:43.831Z,1009.3
2016-11-07T09:55:43.773Z,1009.31
2016-11-07T10:00:43.715Z,1009.38
2016-11-07T10:05:43.657Z,1009.39
2016-11-07T10:10:43.598Z,1009.4
2016-11-07T10:15:43.536Z,1009.48
2016-11-07T10:20:43.479Z,1009.49
2016-11-07T10:25:43.419Z,1009.53
2016-11-07T10:30:43.361Z,1009.54
2016-11-07T10:35:43.303Z,1009.55
2016-11-07T10:40:43.243Z,1009.52
2016-11-07T10:45:43.189Z,1009.55
2016-11-07T10:50:43.127Z,1009.59
2016-11-07T10:55:43.068Z,1009.55
2016-11-07T11:00:43.006Z,1009.59
2016-11-07T11:05:42.948Z,1009.63
2016-11-07T11:10:42.890Z,1009.66
2016-11-07T11:15:42.832Z,1009.67
2016-11-07T11:20:42.779Z,1009.69
2016-11-07T11:25:42.719Z,1009.73
2016-11-07T11:30:42.677Z,1009.82
2016-11-07T11:35:42.606Z,1009.82
2016-11-07T11:40:42.552Z,1009.79
2016-11-07T11:45:42.495Z,1009.78
2016-11-07T11:50:42.440Z,1009.79
2016-11-07T11:55:42.386Z,1009.83
2016-11-07T12:00:42.332Z,1009.85
2016-11-07T12:05:42.277Z,1009.85
2016-11-07T12:10:42.222Z,1009.92
2016-11-07T12:15:42.165Z,1009.92
2016-11-07T12:20:42.109Z,1009.9
2016-11-07T12:25:42.054Z,1009.92
2016-11-07T12:30:42.002Z,1009.92
2016-11-07T12:35:41.942Z,1009.93
2016-11-07T12:40:41.889Z,1009.95
2016-11-07T12:45:41.830Z,1009.94
2016-11-07T12:50:41.775Z,1010.01
2016-11-07T12:55:41.717Z,1010.06
2016-11-07T13:00:41.659Z,1010.04
2016-11-07T13:05:41.600Z,1010.08
2016-11-07T13:10:41.548Z,1010.2
2016-11-07T13:15:41.485Z,1010.2
2016-11-07T13:20:41.431Z,1010.1
2016-11-07T13:25:41.371Z,1010.15
2016-11-07T13:30:41.311Z,1010.24
2016-11-07T13:35:41.255Z,1010.26
2016-11-07T13:40:41.198Z,1010.32
2016-11-07T13:45:41.138Z,1010.33
2016-11-07T13:50:41.079Z,1010.36
2016-11-07T13:55:41.024Z,1010.35
2016-11-07T14:00:40.970Z,1010.43
2016-11-07T14:05:40.915Z,1010.5
2016-11-07T14:10:40.865Z,1010.44
2016-11-07T14:15:40.812Z,1010.42
2016-11-07T14:20:40.759Z,1010.49
2016-11-07T14:25:40.708Z,1010.57
2016-11-07T14:30:40.663Z,1010.61
2016-11-07T14:35:40.607Z,1010.63
2016-11-07T14:40:40.559Z,1010.61
2016-11-07T14:45:40.506Z,1010.65
2016-11-07T14:50:40.455Z,1010.68
2016-11-07T14:55:40.405Z,1010.71
2016-11-07T15:00:40.355Z,1010.71
2016-11-07T15:05:40.307Z,1010.74
2016-11-07T15:10:40.259Z,1010.77
2016-11-07T15:15:40.218Z,1010.81
2016-11-07T15:20:40.161Z,1010.83
2016-11-07T15:25:40.119Z,1010.83
2016-11-07T15:30:40.071Z,1010.85
2016-11-07T15:35:40.021Z,1010.83
2016-11-07T15:40:40.174Z,1010.89
2016-11-07T15:45:39.929Z,1010.92
2016-11-07T15:50:39.881Z,1010.96
2016-11-07T15:55:39.833Z,1010.97
2016-11-07T16:00:39.795Z,1011
2016-11-07T16:05:39.741Z,1011.01
2016-11-07T16:10:39.693Z,1011.02
2016-11-07T16:15:39.652Z,1011.09
2016-11-07T16:20:39.603Z,1011.14
2016-11-07T16:25:39.559Z,1011.19
2016-11-07T16:30:39.506Z,1011.16
2016-11-07T16:35:39.456Z,1011.2
2016-11-07T16:40:39.408Z,1011.24
2016-11-07T16:45:39.358Z,1011.32
2016-11-07T16:50:39.304Z,1011.35
2016-11-07T16:55:39.252Z,1011.43
2016-11-07T17:00:39.196Z,1011.42
2016-11-07T17:05:39.142Z,1011.45
2016-11-07T17:10:39.089Z,1011.48
2016-11-07T17:15:39.040Z,1011.5
2016-11-07T17:20:38.987Z,1011.48
2016-11-07T17:25:38.933Z,1011.52
2016-11-07T17:30:38.879Z,1011.58
2016-11-07T17:35:38.825Z,1011.55
2016-11-07T17:40:38.773Z,1011.53
2016-11-07T17:45:38.720Z,1011.49
2016-11-07T17:50:38.669Z,1011.55
2016-11-07T17:55:38.615Z,1011.57
2016-11-07T18:00:38.563Z,1011.62
2016-11-07T18:05:38.509Z,1011.57
2016-11-07T18:10:38.457Z,1011.6
2016-11-07T18:15:38.409Z,1011.65
2016-11-07T18:20:38.355Z,1011.67
2016-11-07T18:25:38.305Z,1011.79
2016-11-07T18:30:38.252Z,1011.75
2016-11-07T18:35:38.201Z,1011.69
2016-11-07T18:40:38.146Z,1011.67
2016-11-07T18:45:38.095Z,1011.71
2016-11-07T18:50:38.045Z,1011.82
2016-11-07T18:55:37.992Z,1011.76
2016-11-07T19:00:37.944Z,1011.79
2016-11-07T19:05:37.897Z,1011.82
2016-11-07T19:10:37.845Z,1011.83
2016-11-07T19:15:37.798Z,1011.88
2016-11-07T19:20:37.743Z,1011.85
2016-11-07T19:25:37.695Z,1011.89
2016-11-07T19:30:37.640Z,1011.95
2016-11-07T19:35:37.590Z,1011.97
2016-11-07T19:40:37.536Z,1012
2016-11-07T19:45:37.489Z,1012.05
2016-11-07T19:50:37.436Z,1011.99
2016-11-07T19:55:37.386Z,1011.95
2016-11-07T20:00:37.333Z,1011.99
2016-11-07T20:05:37.284Z,1011.92
2016-11-07T20:10:37.233Z,1012
2016-11-07T20:15:37.176Z,1012.2
2016-11-07T20:20:37.125Z,1012.27
2016-11-07T20:25:37.068Z,1012.27
2016-11-07T20:30:37.018Z,1012.26
2016-11-07T20:35:36.967Z,1012.33
2016-11-07T20:40:36.910Z,1012.31
2016-11-07T20:45:36.856Z,1012.29
2016-11-07T20:50:36.803Z,1012.25
2016-11-07T20:55:36.751Z,1012.3
2016-11-07T21:00:36.700Z,1012.29
2016-11-07T21:05:36.644Z,1012.29
2016-11-07T21:10:36.594Z,1012.32
2016-11-07T21:15:36.540Z,1012.27
2016-11-07T21:20:36.491Z,1012.21
2016-11-07T21:25:36.438Z,1012.2
2016-11-07T21:30:36.391Z,1012.2
2016-11-07T21:35:36.340Z,1012.21
2016-11-07T21:40:36.289Z,1012.22
2016-11-07T21:45:36.235Z,1012.14
2016-11-07T21:50:36.189Z,1012.1
2016-11-07T21:55:36.136Z,1012.1
2016-11-07T22:00:36.085Z,1012.14
2016-11-07T22:05:36.031Z,1012.17
2016-11-07T22:10:35.981Z,1012.15
2016-11-07T22:15:35.933Z,1012.08
2016-11-07T22:20:35.883Z,1012.02
2016-11-07T22:25:35.829Z,1011.97
2016-11-07T22:30:35.780Z,1011.96
2016-11-07T22:35:35.726Z,1011.84
2016-11-07T22:40:35.676Z,1011.85
2016-11-07T22:45:35.626Z,1011.97
2016-11-07T22:50:35.575Z,1011.96
2016-11-07T22:55:35.523Z,1011.94
2016-11-07T23:00:35.471Z,1011.89
2016-11-07T23:05:35.418Z,1011.82
2016-11-07T23:10:35.363Z,1011.92
2016-11-07T23:15:35.311Z,1011.93
2016-11-07T23:20:35.257Z,1011.97
2016-11-07T23:25:35.209Z,1011.95
2016-11-07T23:30:35.149Z,1011.93
2016-11-07T23:35:35.097Z,1011.93
2016-11-07T23:40:35.046Z,1011.99
2016-11-07T23:45:34.989Z,1012
2016-11-07T23:50:34.939Z,1011.96
2016-11-07T23:55:34.883Z,1011.89
